Time;durP1;ratioP1;P1;durP2;ratioP2;P2;SDS_P1;SDS_P2;PMS_P1;PMS_P2;Temp;Humidity;BMP_temperature;BMP_pressure;BME280_temperature;BME280_humidity;BME280_pressure;Samples;Min_cycle;Max_cycle;Signal;HPM_P1;HPM_P2
2022/10/31 00:01:31;;;;;;;15.00;6.65;;;10.30;1.00;;;;;;6277286;22;20028;-86
2022/10/31 00:04:18;;;;;;;11.57;6.90;;;10.30;20.40;;;;;;6277763;22;20130;-87
2022/10/31 00:07:05;;;;;;;13.95;6.72;;;10.20;58.90;;;;;;6278703;22;20487;-86
2022/10/31 00:09:55;;;;;;;13.93;7.53;;;10.20;94.40;;;;;;6278331;22;20389;-86
2022/10/31 00:12:42;;;;;;;11.63;6.72;;;10.10;99.90;;;;;;6278660;22;20023;-86
2022/10/31 00:15:29;;;;;;;12.50;6.95;;;10.20;99.90;;;;;;6277552;22;20028;-87
2022/10/31 00:18:16;;;;;;;13.77;7.35;;;10.20;99.90;;;;;;6277874;22;20106;-86
2022/10/31 00:21:04;;;;;;;16.35;6.88;;;10.20;99.90;;;;;;6277824;22;20407;-86
2022/10/31 00:23:51;;;;;;;10.45;6.38;;;10.20;99.90;;;;;;6258706;22;20431;-86
2022/10/31 00:26:40;;;;;;;12.98;7.18;;;10.20;99.90;;;;;;6279081;22;20024;-86
2022/10/31 00:29:27;;;;;;;15.18;7.80;;;10.20;99.90;;;;;;6284513;22;20024;-85
2022/10/31 00:32:15;;;;;;;11.95;7.05;;;10.20;99.90;;;;;;6289984;22;20372;-86
2022/10/31 00:35:02;;;;;;;16.67;7.25;;;10.20;99.90;;;;;;6292103;22;20055;-86
2022/10/31 00:37:49;;;;;;;14.27;6.55;;;10.20;99.90;;;;;;6272469;22;20027;-86
2022/10/31 00:40:37;;;;;;;14.63;6.50;;;10.20;99.90;;;;;;6299578;22;20054;-86
2022/10/31 00:43:27;;;;;;;13.80;6.25;;;10.30;99.90;;;;;;6299278;22;20027;-85
2022/10/31 00:46:14;;;;;;;17.95;7.18;;;10.10;99.90;;;;;;6285297;22;20086;-85
2022/10/31 00:49:01;;;;;;;14.85;7.20;;;10.10;99.90;;;;;;6280992;22;20403;-85
2022/10/31 00:51:48;;;;;;;13.82;6.18;;;10.10;99.90;;;;;;6280206;22;20023;-87
2022/10/31 00:54:36;;;;;;;14.63;7.07;;;10.10;99.90;;;;;;6278634;22;20363;-86
2022/10/31 00:57:24;;;;;;;15.88;6.70;;;10.10;99.90;;;;;;6281322;22;20085;-86
2022/10/31 01:00:12;;;;;;;16.83;6.10;;;10.10;99.90;;;;;;6278833;22;20024;-85
2022/10/31 01:02:59;;;;;;;14.00;6.55;;;10.00;99.90;;;;;;6278047;22;20130;-85
2022/10/31 01:05:56;;;;;;;10.00;6.43;;;10.00;99.90;;;;;;6255259;22;20061;-87
2022/10/31 01:08:46;;;;;;;10.20;6.05;;;10.00;99.90;;;;;;6256495;22;20030;-87
2022/10/31 01:11:33;;;;;;;10.65;6.20;;;10.00;99.90;;;;;;6276231;22;20051;-87
2022/10/31 01:14:21;;;;;;;14.07;6.78;;;10.10;99.90;;;;;;6278157;22;20031;-86
2022/10/31 01:17:08;;;;;;;15.43;6.35;;;10.20;99.90;;;;;;6278659;22;20102;-86
2022/10/31 01:19:55;;;;;;;10.48;5.93;;;10.20;99.90;;;;;;6277128;22;20330;-87
2022/10/31 01:22:42;;;;;;;13.70;6.45;;;10.10;99.90;;;;;;6278045;22;20104;-87
2022/10/31 01:25:29;;;;;;;13.52;6.78;;;10.10;99.90;;;;;;6275809;22;20019;-87
2022/10/31 01:28:16;;;;;;;12.52;6.03;;;10.20;99.90;;;;;;6276540;22;20034;-87
2022/10/31 01:31:08;;;;;;;13.63;5.72;;;10.10;99.90;;;;;;6278719;22;20221;-87
2022/10/31 01:33:56;;;;;;;12.88;6.38;;;10.00;99.90;;;;;;6277287;22;20020;-89
2022/10/31 01:36:50;;;;;;;15.68;6.63;;;10.10;99.90;;;;;;6276153;22;20019;-87
2022/10/31 01:39:38;;;;;;;10.88;6.35;;;10.00;99.90;;;;;;6278679;22;20328;-87
2022/10/31 01:42:26;;;;;;;14.80;6.63;;;10.00;99.90;;;;;;6276549;22;20098;-87
2022/10/31 01:45:16;;;;;;;10.93;5.82;;;10.00;99.90;;;;;;6276121;22;20020;-87
2022/10/31 01:48:03;;;;;;;12.95;6.28;;;10.00;99.90;;;;;;6277154;22;20075;-87
2022/10/31 01:50:52;;;;;;;12.13;5.93;;;10.00;99.90;;;;;;6255642;22;20079;-87
2022/10/31 01:53:41;;;;;;;14.68;5.85;;;10.00;99.90;;;;;;6257133;22;20034;-87
2022/10/31 01:56:29;;;;;;;11.80;6.22;;;9.90;99.90;;;;;;6276434;22;20031;-87
2022/10/31 01:59:20;;;;;;;12.07;5.72;;;9.80;99.90;;;;;;6274839;22;20027;-84
2022/10/31 02:02:10;;;;;;;13.27;6.30;;;9.80;99.90;;;;;;6277159;22;20042;-85
2022/10/31 02:05:01;;;;;;;11.30;6.45;;;9.70;99.90;;;;;;6275996;22;20120;-87
2022/10/31 02:07:55;;;;;;;10.85;6.25;;;9.70;99.90;;;;;;6276605;22;20047;-84
2022/10/31 02:10:43;;;;;;;12.48;6.60;;;9.70;99.90;;;;;;6276433;22;20019;-85
2022/10/31 02:13:31;;;;;;;13.80;6.65;;;9.70;99.90;;;;;;6275443;22;20120;-85
2022/10/31 02:16:18;;;;;;;18.13;7.78;;;9.60;99.90;;;;;;6276412;22;20034;-85
2022/10/31 02:19:10;;;;;;;11.43;6.70;;;9.60;99.90;;;;;;6276623;22;20099;-85
2022/10/31 02:22:11;;;;;;;12.10;7.18;;;9.60;99.90;;;;;;6275427;22;20027;-85
2022/10/31 02:25:07;;;;;;;17.50;7.65;;;9.60;99.90;;;;;;6277346;22;20020;-86
2022/10/31 02:28:17;;;;;;;15.93;7.80;;;9.60;99.90;;;;;;6256552;22;20028;-86
2022/10/31 02:31:46;;;;;;;16.23;7.70;;;9.60;99.90;;;;;;6278656;22;20038;-85
2022/10/31 02:34:40;;;;;;;19.65;6.95;;;9.50;99.90;;;;;;6280238;22;20091;-85
2022/10/31 02:37:40;;;;;;;13.38;7.72;;;9.40;99.90;;;;;;6278247;22;20039;-85
2022/10/31 02:40:32;;;;;;;16.08;7.82;;;9.40;99.90;;;;;;6276501;22;20427;-83
2022/10/31 02:43:32;;;;;;;12.90;6.82;;;9.40;99.90;;;;;;6254670;22;20034;-84
2022/10/31 02:46:36;;;;;;;12.32;7.63;;;9.50;99.90;;;;;;6255209;22;20103;-84
2022/10/31 02:49:32;;;;;;;13.20;8.02;;;9.40;99.90;;;;;;6275512;22;20038;-85
2022/10/31 02:52:31;;;;;;;19.48;9.13;;;9.40;99.90;;;;;;6278250;22;20034;-85
2022/10/31 02:55:24;;;;;;;15.15;8.20;;;9.50;99.90;;;;;;6276859;22;20023;-85
2022/10/31 02:58:15;;;;;;;13.77;8.70;;;9.60;99.90;;;;;;6275826;22;20019;-86
2022/10/31 03:01:22;;;;;;;15.77;7.97;;;9.60;99.90;;;;;;6273504;22;20026;-85
2022/10/31 03:04:41;;;;;;;17.30;8.68;;;9.70;99.90;;;;;;6275752;22;20026;-85
2022/10/31 03:07:49;;;;;;;16.05;7.80;;;9.80;99.90;;;;;;6275178;22;20015;-84
2022/10/31 03:10:46;;;;;;;19.95;8.60;;;9.80;99.90;;;;;;6275284;22;20028;-85
2022/10/31 03:13:43;;;;;;;16.45;8.55;;;9.80;99.90;;;;;;6278058;22;20031;-85
2022/10/31 03:16:47;;;;;;;20.23;8.60;;;9.80;99.90;;;;;;6275892;22;20433;-85
2022/10/31 03:19:45;;;;;;;17.30;8.48;;;9.60;99.90;;;;;;6254794;22;20102;-84
2022/10/31 03:22:34;;;;;;;15.30;8.65;;;9.60;99.90;;;;;;6274827;22;20020;-85
2022/10/31 03:25:22;;;;;;;14.93;8.23;;;9.60;99.90;;;;;;6275720;22;20423;-85
2022/10/31 03:28:12;;;;;;;14.70;7.60;;;9.50;99.90;;;;;;6276474;22;20322;-85
2022/10/31 03:31:01;;;;;;;15.32;8.85;;;9.40;99.90;;;;;;6253480;22;20491;-85
2022/10/31 03:33:58;;;;;;;17.30;8.20;;;9.30;99.90;;;;;;6275422;22;20027;-85
2022/10/31 03:36:49;;;;;;;;;;;9.30;99.90;;;;;;6275749;22;20115;-85
2022/10/31 03:39:39;;;;;;;17.13;7.80;;;9.20;99.90;;;;;;6254544;22;19915;-85
2022/10/31 03:42:31;;;;;;;20.80;8.25;;;9.20;99.90;;;;;;6275822;22;20024;-85
2022/10/31 03:45:24;;;;;;;16.73;8.93;;;9.20;99.90;;;;;;6275920;22;20316;-85
2022/10/31 03:48:13;;;;;;;13.98;8.63;;;9.30;99.90;;;;;;6254015;22;20110;-85
2022/10/31 03:51:06;;;;;;;18.25;8.00;;;9.30;99.90;;;;;;6234656;22;20023;-86
2022/10/31 03:53:59;;;;;;;18.60;8.63;;;9.20;99.90;;;;;;6275917;22;20039;-87
2022/10/31 03:56:54;;;;;;;16.30;8.77;;;9.10;99.90;;;;;;6276783;22;20050;-87
2022/10/31 03:59:54;;;;;;;18.38;8.43;;;9.10;99.90;;;;;;6276250;22;20079;-84
2022/10/31 04:02:52;;;;;;;18.52;8.27;;;9.00;99.90;;;;;;6275760;22;20077;-86
2022/10/31 04:05:43;;;;;;;13.93;8.05;;;9.00;99.90;;;;;;6276584;22;20028;-86
2022/10/31 04:08:32;;;;;;;17.38;8.63;;;8.90;99.90;;;;;;6276720;22;20048;-87
2022/10/31 04:11:25;;;;;;;24.13;8.57;;;8.90;99.90;;;;;;6276352;22;20027;-86
2022/10/31 04:14:12;;;;;;;19.25;9.15;;;8.80;99.90;;;;;;6276844;22;20038;-87
2022/10/31 04:17:01;;;;;;;12.48;8.75;;;8.80;99.90;;;;;;6252964;22;20023;-87
2022/10/31 04:19:48;;;;;;;16.60;8.63;;;8.80;99.90;;;;;;6277335;22;20106;-86
2022/10/31 04:22:35;;;;;;;17.58;9.20;;;8.80;99.90;;;;;;6274736;22;20038;-87
2022/10/31 04:25:22;;;;;;;17.02;9.40;;;8.80;99.90;;;;;;6277221;22;20023;-87
2022/10/31 04:28:09;;;;;;;23.90;10.32;;;8.90;99.90;;;;;;6278915;22;20027;-86
2022/10/31 04:30:57;;;;;;;21.08;10.68;;;9.00;99.90;;;;;;6277745;22;20024;-85
2022/10/31 04:33:44;;;;;;;21.85;9.15;;;9.00;99.90;;;;;;6253956;22;20437;-84
2022/10/31 04:36:31;;;;;;;18.33;9.10;;;8.90;99.90;;;;;;6277561;22;20028;-84
2022/10/31 04:39:18;;;;;;;19.00;9.38;;;8.90;99.90;;;;;;6276915;22;20103;-84
2022/10/31 04:42:12;;;;;;;25.38;9.68;;;8.80;99.90;;;;;;6277378;22;20113;-84
2022/10/31 04:44:59;;;;;;;17.63;9.13;;;8.80;99.90;;;;;;6281334;22;20019;-87
2022/10/31 04:47:48;;;;;;;22.88;9.32;;;8.70;99.90;;;;;;6278084;22;20016;-87
2022/10/31 04:50:35;;;;;;;15.30;8.75;;;8.70;99.90;;;;;;6279148;22;20099;-87
2022/10/31 04:53:23;;;;;;;20.00;10.15;;;8.60;99.90;;;;;;6275642;22;20023;-87
2022/10/31 04:56:12;;;;;;;17.52;8.70;;;8.60;99.90;;;;;;6256520;22;20019;-86
2022/10/31 04:58:59;;;;;;;16.10;9.13;;;8.50;99.90;;;;;;6256380;22;20039;-86
2022/10/31 05:01:46;;;;;;;16.27;9.38;;;8.40;99.90;;;;;;6274822;22;20146;-84
2022/10/31 05:04:34;;;;;;;20.90;9.48;;;8.40;99.90;;;;;;6276889;22;20301;-84
2022/10/31 05:07:21;;;;;;;16.73;8.88;;;8.50;99.90;;;;;;6277807;22;20020;-84
2022/10/31 05:10:10;;;;;;;16.38;9.35;;;8.50;99.90;;;;;;6255692;22;20031;-84
2022/10/31 05:13:02;;;;;;;22.40;9.40;;;8.40;99.90;;;;;;6276868;22;20117;-86
2022/10/31 05:15:52;;;;;;;12.65;8.65;;;8.40;99.90;;;;;;6276766;22;20138;-86
2022/10/31 05:18:39;;;;;;;20.27;8.93;;;8.30;99.90;;;;;;6277826;22;20050;-85
2022/10/31 05:21:26;;;;;;;20.80;9.35;;;8.20;99.90;;;;;;6277839;22;20035;-86
2022/10/31 05:24:14;;;;;;;15.93;9.25;;;8.10;99.90;;;;;;6277918;22;20024;-86
2022/10/31 05:27:01;;;;;;;18.38;8.43;;;8.00;99.90;;;;;;6277828;22;20450;-87
2022/10/31 05:29:48;;;;;;;14.20;8.73;;;8.00;99.90;;;;;;6277776;22;20049;-87
2022/10/31 05:32:44;;;;;;;13.48;8.88;;;8.00;99.90;;;;;;6278576;22;20482;-87
2022/10/31 05:35:32;;;;;;;24.88;10.10;;;7.90;99.90;;;;;;6276586;22;20039;-87
2022/10/31 05:38:24;;;;;;;19.80;9.18;;;8.00;99.90;;;;;;6277784;22;20024;-87
2022/10/31 05:41:12;;;;;;;;;;;7.90;99.90;;;;;;6255871;22;20113;-87
2022/10/31 05:43:59;;;;;;;18.33;8.63;;;8.00;99.90;;;;;;6256703;22;20337;-86
2022/10/31 05:46:46;;;;;;;25.08;10.65;;;8.10;99.90;;;;;;6276765;22;20042;-86
2022/10/31 05:49:34;;;;;;;25.20;10.90;;;8.00;99.90;;;;;;6276544;22;20027;-86
2022/10/31 05:52:21;;;;;;;24.25;9.65;;;8.00;99.90;;;;;;6277208;22;20019;-84
2022/10/31 05:55:08;;;;;;;17.73;10.30;;;8.00;99.90;;;;;;6276212;22;20110;-84
2022/10/31 05:57:58;;;;;;;20.73;10.88;;;8.00;99.90;;;;;;6277511;22;20055;-85
2022/10/31 06:00:48;;;;;;;21.98;10.85;;;8.10;99.90;;;;;;6277301;22;20038;-84
2022/10/31 06:03:35;;;;;;;17.38;10.00;;;8.10;99.90;;;;;;6253531;22;20035;-83
2022/10/31 06:06:22;;;;;;;23.10;9.93;;;8.10;99.90;;;;;;6276503;22;20395;-83
2022/10/31 06:09:09;;;;;;;22.73;11.23;;;8.10;99.90;;;;;;6274921;22;20027;-83
2022/10/31 06:11:59;;;;;;;23.35;10.73;;;8.10;99.90;;;;;;6277199;22;20034;-82
2022/10/31 06:14:49;;;;;;;22.23;10.90;;;8.10;99.90;;;;;;6277390;22;20110;-81
2022/10/31 06:17:38;;;;;;;26.70;11.20;;;8.10;99.90;;;;;;6277262;22;20055;-81
2022/10/31 06:20:26;;;;;;;20.42;10.98;;;8.10;99.90;;;;;;6278294;22;20024;-81
2022/10/31 06:23:13;;;;;;;22.13;11.05;;;8.10;99.90;;;;;;6276131;22;20389;-81
2022/10/31 06:26:02;;;;;;;20.10;10.38;;;8.10;99.90;;;;;;6277354;22;20070;-84
2022/10/31 06:28:52;;;;;;;21.20;11.07;;;8.10;99.90;;;;;;6276861;22;20038;-84
2022/10/31 06:31:39;;;;;;;19.92;11.27;;;8.10;99.90;;;;;;6278507;22;20019;-85
2022/10/31 06:34:29;;;;;;;23.83;11.10;;;8.10;99.90;;;;;;6278451;22;20106;-86
2022/10/31 06:37:16;;;;;;;28.50;12.15;;;8.20;99.90;;;;;;6279194;22;20074;-86
2022/10/31 06:40:04;;;;;;;19.38;10.73;;;8.20;99.90;;;;;;6277120;22;20322;-86
2022/10/31 06:43:01;;;;;;;22.95;10.38;;;8.30;99.90;;;;;;6277287;22;20023;-85
2022/10/31 06:45:50;;;;;;;16.23;9.30;;;8.30;99.90;;;;;;6255842;22;20440;-86
2022/10/31 06:48:37;;;;;;;19.80;12.07;;;8.30;99.90;;;;;;6254405;22;20028;-88
2022/10/31 06:51:24;;;;;;;16.85;10.20;;;8.50;99.90;;;;;;6276899;22;20023;-89
2022/10/31 06:54:14;;;;;;;21.38;10.57;;;8.70;99.90;;;;;;6277473;22;20027;-89
2022/10/31 06:57:01;;;;;;;21.42;11.32;;;8.80;99.90;;;;;;6278945;22;20034;-89
2022/10/31 06:59:48;;;;;;;19.00;10.88;;;8.90;99.90;;;;;;6278633;22;20051;-89
2022/10/31 07:02:36;;;;;;;19.88;10.73;;;9.00;99.90;;;;;;6278969;22;20055;-89
2022/10/31 07:05:24;;;;;;;31.25;12.13;;;9.20;99.90;;;;;;6282253;22;20051;-89
2022/10/31 07:08:13;;;;;;;20.13;10.55;;;9.40;99.90;;;;;;6287009;22;20054;-88
2022/10/31 07:11:00;;;;;;;22.92;10.32;;;9.50;99.90;;;;;;6289144;22;20257;-88
2022/10/31 07:13:50;;;;;;;24.80;9.85;;;9.60;99.90;;;;;;6283909;22;20019;-88
2022/10/31 07:16:39;;;;;;;22.02;10.25;;;9.50;99.90;;;;;;6284955;22;20083;-88
2022/10/31 07:19:27;;;;;;;16.17;9.00;;;9.50;99.90;;;;;;6279934;22;20123;-88
2022/10/31 07:22:14;;;;;;;18.85;8.57;;;9.50;99.90;;;;;;6280541;22;20119;-88
2022/10/31 07:25:01;;;;;;;13.02;7.85;;;9.50;99.90;;;;;;6256323;22;20324;-88
2022/10/31 07:27:49;;;;;;;13.13;7.97;;;9.60;99.90;;;;;;6276895;22;20030;-90
2022/10/31 07:30:40;;;;;;;15.15;7.72;;;9.70;99.90;;;;;;6275620;22;20038;-89
2022/10/31 07:33:29;;;;;;;13.15;7.38;;;9.80;99.90;;;;;;6276408;22;20027;-89
2022/10/31 07:36:16;;;;;;;14.95;6.30;;;9.90;99.90;;;;;;6276967;22;20192;-89
2022/10/31 07:39:04;;;;;;;15.95;6.07;;;9.90;99.90;;;;;;6275364;22;20451;-86
2022/10/31 07:41:51;;;;;;;17.25;6.43;;;10.00;99.90;;;;;;6256305;22;20020;-84
2022/10/31 07:44:41;;;;;;;13.18;5.78;;;10.10;99.90;;;;;;6254276;22;20122;-86
2022/10/31 07:47:28;;;;;;;13.30;5.80;;;10.20;99.90;;;;;;6274109;22;20059;-89
2022/10/31 07:50:21;;;;;;;14.10;6.15;;;10.40;99.90;;;;;;6274839;22;20039;-87
2022/10/31 07:53:13;;;;;;;10.20;6.50;;;10.60;12.30;;;;;;6275787;22;20059;-85
2022/10/31 07:56:00;;;;;;;13.65;6.00;;;10.90;99.90;;;;;;6255371;22;20029;-86
2022/10/31 07:58:47;;;;;;;17.45;5.88;;;11.10;99.90;;;;;;6280751;22;20034;-85
2022/10/31 08:01:34;;;;;;;14.65;5.80;;;11.40;86.60;;;;;;6256466;22;20023;-85
2022/10/31 08:04:21;;;;;;;14.90;5.78;;;11.50;99.90;;;;;;6279150;22;20075;-86
2022/10/31 08:07:09;;;;;;;13.80;6.32;;;11.70;99.90;;;;;;6277884;22;20093;-86
2022/10/31 08:09:56;;;;;;;15.85;5.75;;;11.80;99.90;;;;;;6276501;22;20055;-85
2022/10/31 08:12:43;;;;;;;12.38;5.20;;;11.90;1.00;;;;;;6278581;22;20351;-87
2022/10/31 08:15:31;;;;;;;10.35;5.32;;;12.10;99.90;;;;;;6278002;22;20379;-87
2022/10/31 08:18:18;;;;;;;15.43;5.55;;;12.30;99.90;;;;;;6276861;22;20025;-86
2022/10/31 08:21:06;;;;;;;15.98;6.30;;;12.50;1.00;;;;;;6278158;22;20024;-86
2022/10/31 08:23:55;;;;;;;11.98;4.72;;;12.70;1.00;;;;;;6256947;22;20047;-86
2022/10/31 08:26:42;;;;;;;12.68;5.40;;;12.90;99.90;;;;;;6277141;22;20512;-86
2022/10/31 08:29:30;;;;;;;10.30;5.30;;;13.00;99.90;;;;;;6278341;22;20024;-86
2022/10/31 08:32:17;;;;;;;11.85;4.90;;;13.10;99.90;;;;;;6277913;22;20077;-86
2022/10/31 08:35:04;;;;;;;13.77;5.57;;;13.30;99.90;;;;;;6278719;22;20020;-86
2022/10/31 08:37:55;;;;;;;11.80;5.07;;;13.30;93.50;;;;;;6275300;22;20399;-86
2022/10/31 08:40:43;;;;;;;10.18;5.20;;;13.40;60.20;;;;;;6278256;22;20132;-87
2022/10/31 08:43:30;;;;;;;10.77;5.47;;;13.60;50.90;;;;;;6277870;22;20020;-86
2022/10/31 08:46:17;;;;;;;11.52;4.80;;;13.80;11.40;;;;;;6278179;22;20102;-87
2022/10/31 08:49:04;;;;;;;14.55;5.32;;;13.80;1.00;;;;;;6277988;22;20319;-87
2022/10/31 08:51:54;;;;;;;10.20;4.90;;;13.90;1.00;;;;;;6278162;22;20034;-86
2022/10/31 08:54:44;;;;;;;9.57;5.43;;;14.20;1.00;;;;;;6279246;22;20055;-86
2022/10/31 08:57:31;;;;;;;11.13;4.65;;;14.50;1.00;;;;;;6277999;22;20488;-86
2022/10/31 09:00:18;;;;;;;12.55;4.57;;;15.00;1.00;;;;;;6278458;22;20165;-88
2022/10/31 09:03:09;;;;;;;8.93;4.18;;;15.60;99.90;;;;;;6278768;22;20103;-87
2022/10/31 09:06:01;;;;;;;10.25;3.80;;;16.00;99.90;;;;;;6277274;22;20086;-87
2022/10/31 09:08:50;;;;;;;16.63;4.18;;;16.30;99.90;;;;;;6254982;22;20023;-86
2022/10/31 09:11:37;;;;;;;10.40;4.85;;;16.20;99.90;;;;;;6279171;22;20051;-86
2022/10/31 09:14:25;;;;;;;13.63;4.82;;;16.00;99.90;;;;;;6276932;22;20415;-87
2022/10/31 09:17:12;;;;;;;8.98;5.13;;;15.70;99.90;;;;;;6277611;22;20059;-87
2022/10/31 09:19:59;;;;;;;14.95;5.20;;;15.50;99.90;;;;;;6277203;22;20023;-87
2022/10/31 09:22:49;;;;;;;9.65;4.63;;;15.40;99.90;;;;;;6256238;22;20066;-86
2022/10/31 09:25:36;;;;;;;10.23;4.13;;;15.50;99.90;;;;;;6277489;22;20099;-87
2022/10/31 09:28:24;;;;;;;10.85;4.20;;;15.70;99.90;;;;;;6278205;22;20027;-87
2022/10/31 09:31:11;;;;;;;8.07;4.55;;;16.00;99.90;;;;;;6278111;22;20102;-86
2022/10/31 09:34:01;;;;;;;12.73;4.90;;;16.10;99.90;;;;;;6276963;22;20028;-87
2022/10/31 09:36:48;;;;;;;13.23;4.43;;;16.20;99.90;;;;;;6276995;22;20033;-87
2022/10/31 09:39:35;;;;;;;10.27;4.40;;;16.50;99.90;;;;;;6278372;22;20077;-87
2022/10/31 09:42:25;;;;;;;12.77;4.50;;;16.60;99.90;;;;;;6278164;22;20509;-87
2022/10/31 09:45:17;;;;;;;8.43;3.88;;;17.00;99.90;;;;;;6276839;22;20112;-87
2022/10/31 09:48:35;;;;;;;11.07;4.55;;;17.10;99.90;;;;;;6255747;22;20055;-86
2022/10/31 09:51:34;;;;;;;8.93;4.13;;;17.30;99.90;;;;;;6277982;22;20095;-86
2022/10/31 09:54:28;;;;;;;12.23;4.35;;;17.40;99.90;;;;;;6276079;22;20451;-87
2022/10/31 09:57:24;;;;;;;9.80;4.28;;;17.30;99.90;;;;;;6276926;22;20102;-87
2022/10/31 10:00:20;;;;;;;11.93;4.47;;;17.50;99.90;;;;;;6278091;22;20109;-87
2022/10/31 10:03:21;;;;;;;7.85;4.13;;;18.10;99.90;;;;;;6277389;22;20047;-88
2022/10/31 10:06:17;;;;;;;11.02;4.10;;;18.40;99.90;;;;;;6278783;22;20030;-87
2022/10/31 10:09:04;;;;;;;11.07;4.25;;;18.70;99.90;;;;;;6275581;22;20052;-87
2022/10/31 10:12:21;;;;;;;8.82;4.15;;;18.70;99.90;;;;;;6275605;22;20047;-87
2022/10/31 10:15:51;;;;;;;12.55;4.25;;;18.90;99.90;;;;;;6277326;22;20032;-86
2022/10/31 10:18:55;;;;;;;11.55;4.50;;;18.90;99.90;;;;;;6277537;22;20019;-84
2022/10/31 10:21:54;;;;;;;12.13;3.60;;;18.90;99.90;;;;;;6274345;22;20171;-86
2022/10/31 10:24:56;;;;;;;7.97;4.22;;;18.90;99.90;;;;;;6278178;22;20038;-88
2022/10/31 10:28:05;;;;;;;15.30;3.95;;;19.30;99.90;;;;;;6254638;22;20355;-87
2022/10/31 10:31:07;;;;;;;10.00;4.10;;;19.70;99.90;;;;;;6256363;22;20412;-88
2022/10/31 10:34:18;;;;;;;12.57;4.63;;;20.00;99.90;;;;;;6277758;22;20042;-88
2022/10/31 10:37:20;;;;;;;11.52;4.57;;;20.20;99.90;;;;;;6277135;22;20034;-87
2022/10/31 10:40:16;;;;;;;15.95;4.68;;;20.00;99.90;;;;;;6254909;22;20503;-87
2022/10/31 10:43:23;;;;;;;8.60;3.95;;;19.90;99.90;;;;;;6277037;22;20149;-88
2022/10/31 10:49:24;;;;;;;12.63;4.20;;;19.80;99.90;;;;;;6275939;22;20491;-87
2022/10/31 10:52:15;;;;;;;8.05;3.88;;;20.00;99.90;;;;;;6276321;22;20102;-87
2022/10/31 10:55:32;;;;;;;9.40;3.92;;;20.00;99.90;;;;;;6262522;22;20141;-87
2022/10/31 10:58:22;;;;;;;7.53;3.00;;;20.10;99.90;;;;;;6277614;22;20024;-87
2022/10/31 11:01:12;;;;;;;16.13;5.47;;;20.40;99.90;;;;;;6280685;22;20107;-86
2022/10/31 11:04:35;;;;;;;9.18;3.83;;;20.80;99.90;;;;;;6256762;22;20095;-86
2022/10/31 11:07:24;;;;;;;13.07;5.65;;;21.60;99.90;;;;;;6279141;22;20030;-88
2022/10/31 11:10:15;;;;;;;15.95;7.57;;;22.70;75.90;;;;;;6276857;22;20442;-87
2022/10/31 11:13:23;;;;;;;8.80;4.57;;;23.40;49.00;;;;;;6275215;22;20028;-87
2022/10/31 11:16:14;;;;;;;11.25;4.30;;;23.80;27.20;;;;;;6277294;22;20090;-87
2022/10/31 11:19:16;;;;;;;8.43;4.13;;;24.10;15.90;;;;;;6276934;22;20030;-87
2022/10/31 11:22:14;;;;;;;6.60;3.20;;;24.20;6.40;;;;;;6277818;22;20109;-85
2022/10/31 11:25:24;;;;;;;11.70;5.15;;;23.80;3.10;;;;;;6256318;22;20077;-88
2022/10/31 11:28:13;;;;;;;7.97;3.60;;;24.00;4.10;;;;;;6255487;22;20113;-87
2022/10/31 11:31:12;;;;;;;10.65;3.35;;;24.30;1.00;;;;;;6276762;22;20301;-87
2022/10/31 11:34:02;;;;;;;8.75;4.05;;;24.10;1.00;;;;;;6275768;22;20098;-87
2022/10/31 11:36:49;;;;;;;8.90;4.10;;;23.20;1.00;;;;;;6254463;22;20016;-87
2022/10/31 11:39:45;;;;;;;9.35;4.20;;;22.10;1.00;;;;;;6255505;22;20099;-87
2022/10/31 11:42:39;;;;;;;14.75;3.92;;;21.60;1.00;;;;;;6253986;22;20031;-87
2022/10/31 11:45:33;;;;;;;14.63;4.55;;;21.10;15.90;;;;;;6278313;22;20024;-86
2022/10/31 11:48:24;;;;;;;11.85;4.00;;;21.10;13.20;;;;;;6277630;22;20027;-86
2022/10/31 11:51:19;;;;;;;13.52;4.82;;;21.20;13.50;;;;;;6277633;22;20028;-86
2022/10/31 11:54:21;;;;;;;10.10;4.10;;;21.10;28.00;;;;;;6280598;22;20600;-87
2022/10/31 11:57:26;;;;;;;19.77;5.15;;;21.20;20.90;;;;;;6259296;22;20038;-86
2022/10/31 12:00:27;;;;;;;10.68;4.20;;;21.30;26.90;;;;;;6260590;22;20256;-87
2022/10/31 12:03:21;;;;;;;8.75;4.32;;;21.60;32.90;;;;;;6276171;22;20111;-87
2022/10/31 12:06:15;;;;;;;10.57;3.90;;;21.90;27.10;;;;;;6275457;22;20051;-87
2022/10/31 12:09:20;;;;;;;11.07;4.00;;;22.10;22.10;;;;;;6257834;22;20024;-87
2022/10/31 12:12:34;;;;;;;12.45;3.97;;;22.60;23.20;;;;;;6276967;22;20340;-87
2022/10/31 12:15:29;;;;;;;15.15;4.75;;;23.10;9.00;;;;;;6287960;22;20024;-87
2022/10/31 12:18:35;;;;;;;8.32;3.60;;;23.10;4.30;;;;;;6275921;22;20423;-86
2022/10/31 12:21:34;;;;;;;10.45;3.85;;;22.30;3.80;;;;;;6276050;22;20056;-87
2022/10/31 12:24:40;;;;;;;9.40;3.70;;;21.70;6.70;;;;;;6276627;22;20370;-87
2022/10/31 12:27:39;;;;;;;7.72;4.20;;;20.90;11.50;;;;;;6275456;22;20093;-86
2022/10/31 12:30:35;;;;;;;10.75;4.32;;;20.20;24.70;;;;;;6276147;22;20116;-86
2022/10/31 12:33:27;;;;;;;9.02;3.88;;;19.60;38.20;;;;;;6275713;22;20055;-86
2022/10/31 12:36:35;;;;;;;9.00;4.40;;;19.30;59.30;;;;;;6278146;22;20030;-87
2022/10/31 12:39:44;;;;;;;9.70;4.07;;;19.10;81.20;;;;;;6277917;22;20020;-86
2022/10/31 12:42:38;;;;;;;6.75;4.15;;;19.20;99.90;;;;;;6277146;22;20023;-88
2022/10/31 12:45:34;;;;;;;12.75;4.35;;;19.30;99.90;;;;;;6280561;22;20304;-87
2022/10/31 12:48:52;;;;;;;14.90;5.22;;;19.10;99.90;;;;;;6257071;22;20343;-87
2022/10/31 12:52:09;;;;;;;15.55;8.93;;;19.10;99.90;;;;;;6278596;22;20146;-87
2022/10/31 12:55:13;;;;;;;13.40;8.80;;;18.90;99.90;;;;;;6278351;22;20466;-87
2022/10/31 12:58:09;;;;;;;24.98;13.45;;;18.90;99.90;;;;;;6278592;22;20027;-86
2022/10/31 13:01:11;;;;;;;34.42;20.05;;;18.70;99.90;;;;;;6278854;22;20047;-86
2022/10/31 13:04:16;;;;;;;25.20;13.55;;;18.70;99.90;;;;;;6237038;22;20097;-87
2022/10/31 13:07:13;;;;;;;14.68;8.57;;;18.70;99.90;;;;;;6256163;22;20495;-87
2022/10/31 13:10:24;;;;;;;18.80;8.98;;;18.80;99.90;;;;;;6278999;22;20034;-87
2022/10/31 13:13:35;;;;;;;13.23;7.05;;;18.80;99.90;;;;;;6280440;22;20020;-88
2022/10/31 13:16:27;;;;;;;13.48;4.55;;;18.90;99.90;;;;;;6278077;22;20048;-87
2022/10/31 13:19:45;;;;;;;12.48;4.63;;;18.90;99.90;;;;;;6255009;22;20089;-86
2022/10/31 13:22:36;;;;;;;10.27;4.30;;;18.90;99.90;;;;;;6279201;22;20027;-86
2022/10/31 13:25:28;;;;;;;14.38;4.47;;;19.50;99.90;;;;;;6278711;22;20081;-86
2022/10/31 13:28:31;;;;;;;6.82;4.03;;;20.10;99.90;;;;;;6276809;22;20027;-87
2022/10/31 13:31:21;;;;;;;14.25;3.72;;;22.20;89.70;;;;;;6278566;22;20040;-87
2022/10/31 13:34:33;;;;;;;10.45;3.13;;;24.50;46.00;;;;;;6278710;22;20335;-87
2022/10/31 13:37:51;;;;;;;15.30;3.40;;;26.40;14.40;;;;;;6258794;22;20078;-88
2022/10/31 13:40:55;;;;;;;13.63;4.15;;;26.20;2.80;;;;;;6255131;22;20091;-87
2022/10/31 13:43:42;;;;;;;11.45;3.00;;;25.40;1.00;;;;;;6280062;22;20030;-87
2022/10/31 13:46:41;;;;;;;11.23;3.85;;;25.00;1.00;;;;;;6276925;22;20312;-86
2022/10/31 13:49:30;;;;;;;11.27;3.70;;;25.00;1.00;;;;;;6277862;22;20028;-87
2022/10/31 13:52:26;;;;;;;12.52;3.65;;;25.10;1.00;;;;;;6277541;22;20400;-88
2022/10/31 13:55:43;;;;;;;8.15;2.85;;;25.00;1.00;;;;;;6256210;22;20105;-87
2022/10/31 13:58:34;;;;;;;13.30;3.22;;;25.90;1.00;;;;;;6256657;22;20502;-87
2022/10/31 14:01:22;;;;;;;8.25;2.97;;;26.10;1.00;;;;;;6258582;22;20403;-87
2022/10/31 14:04:20;;;;;;;11.73;4.10;;;25.80;1.00;;;;;;6236112;22;20023;-87
2022/10/31 14:07:20;;;;;;;8.30;3.77;;;25.20;1.00;;;;;;6276780;22;20085;-86
2022/10/31 14:10:38;;;;;;;6.88;3.67;;;24.80;1.00;;;;;;6256604;22;20023;-86
2022/10/31 14:13:45;;;;;;;11.23;3.30;;;23.70;1.00;;;;;;6254397;22;20028;-86
2022/10/31 14:16:32;;;;;;;13.15;3.42;;;22.90;1.00;;;;;;6277367;22;20035;-87
2022/10/31 14:19:21;;;;;;;10.65;3.90;;;22.60;1.00;;;;;;6278214;22;20024;-85
2022/10/31 14:22:21;;;;;;;11.63;3.78;;;23.00;1.00;;;;;;6278180;22;20134;-87
2022/10/31 14:25:25;;;;;;;13.40;3.55;;;23.90;1.00;;;;;;6277894;22;20024;-87
2022/10/31 14:28:30;;;;;;;9.20;3.55;;;24.60;1.00;;;;;;6277872;22;20477;-88
2022/10/31 14:31:31;;;;;;;10.05;3.58;;;24.60;1.00;;;;;;6277652;22;20020;-87
2022/10/31 14:34:35;;;;;;;7.88;3.10;;;24.50;1.00;;;;;;6276059;22;20085;-87
2022/10/31 14:37:38;;;;;;;8.73;3.55;;;24.40;1.00;;;;;;6277305;22;20019;-87
2022/10/31 14:40:43;;;;;;;11.45;3.40;;;24.40;1.00;;;;;;6258539;22;20126;-87
2022/10/31 14:44:02;;;;;;;7.95;2.80;;;23.90;1.00;;;;;;6276015;22;20027;-87
2022/10/31 14:47:35;;;;;;;9.70;3.65;;;23.40;1.00;;;;;;6278047;22;20058;-87
2022/10/31 14:50:47;;;;;;;5.90;2.60;;;23.30;1.00;;;;;;6162643;23;20092;-87
2022/10/31 14:53:47;;;;;;;13.77;3.47;;;23.20;1.00;;;;;;6160281;23;20032;-87
2022/10/31 14:56:38;;;;;;;5.53;2.92;;;23.40;1.00;;;;;;6282070;22;20099;-86
2022/10/31 14:59:31;;;;;;;11.27;3.20;;;23.70;1.00;;;;;;6253339;22;20024;-88
2022/10/31 15:02:37;;;;;;;7.82;3.40;;;24.30;1.00;;;;;;6276413;22;20085;-87